sensor_id;sensor_type;location;lat;lon;timestamp;temperature;humidity
26954;DHT22;14508;50.924;11.600;2024-03-02T00:00:41;5.20;99.90
26954;DHT22;14508;50.924;11.600;2024-03-02T00:03:11;5.30;99.90
26954;DHT22;14508;50.924;11.600;2024-03-02T00:05:41;5.30;99.90
26954;DHT22;14508;50.924;11.600;2024-03-02T00:08:09;5.30;99.90
26954;DHT22;14508;50.924;11.600;2024-03-02T00:10:39;5.20;99.90
26954;DHT22;14508;50.924;11.600;2024-03-02T00:13:08;5.20;99.90
26954;DHT22;14508;50.924;11.600;2024-03-02T00:15:41;5.20;99.90
26954;DHT22;14508;50.924;11.600;2024-03-02T00:18:11;5.20;99.90
26954;DHT22;14508;50.924;11.600;2024-03-02T00:20:40;5.20;99.90
26954;DHT22;14508;50.924;11.600;2024-03-02T00:23:09;5.10;99.90
26954;DHT22;14508;50.924;11.600;2024-03-02T00:25:42;5.10;99.90
26954;DHT22;14508;50.924;11.600;2024-03-02T00:28:16;5.10;99.90
26954;DHT22;14508;50.924;11.600;2024-03-02T00:30:55;5.10;99.90
26954;DHT22;14508;50.924;11.600;2024-03-02T00:33:23;5.10;99.90
26954;DHT22;14508;50.924;11.600;2024-03-02T00:35:52;5.10;99.90
26954;DHT22;14508;50.924;11.600;2024-03-02T00:38:20;5.10;99.90
26954;DHT22;14508;50.924;11.600;2024-03-02T00:40:50;5.00;99.90
26954;DHT22;14508;50.924;11.600;2024-03-02T00:43:42;5.00;99.90
26954;DHT22;14508;50.924;11.600;2024-03-02T00:46:16;5.10;99.90
26954;DHT22;14508;50.924;11.600;2024-03-02T00:48:51;5.10;99.90
26954;DHT22;14508;50.924;11.600;2024-03-02T00:51:22;5.10;99.90
26954;DHT22;14508;50.924;11.600;2024-03-02T00:53:51;5.10;99.90
26954;DHT22;14508;50.924;11.600;2024-03-02T00:56:20;5.10;99.90
26954;DHT22;14508;50.924;11.600;2024-03-02T00:58:49;5.00;99.90
26954;DHT22;14508;50.924;11.600;2024-03-02T01:01:18;5.10;99.90
26954;DHT22;14508;50.924;11.600;2024-03-02T01:03:46;5.00;99.90
26954;DHT22;14508;50.924;11.600;2024-03-02T01:06:16;5.00;99.90
26954;DHT22;14508;50.924;11.600;2024-03-02T01:08:45;5.10;99.90
26954;DHT22;14508;50.924;11.600;2024-03-02T01:11:18;5.10;99.90
26954;DHT22;14508;50.924;11.600;2024-03-02T01:13:51;5.10;99.90
26954;DHT22;14508;50.924;11.600;2024-03-02T01:16:20;5.10;99.90
26954;DHT22;14508;50.924;11.600;2024-03-02T01:18:48;5.10;99.90
26954;DHT22;14508;50.924;11.600;2024-03-02T01:21:16;5.20;99.90
26954;DHT22;14508;50.924;11.600;2024-03-02T01:23:44;5.20;99.90
26954;DHT22;14508;50.924;11.600;2024-03-02T01:26:13;5.20;99.90
26954;DHT22;14508;50.924;11.600;2024-03-02T01:28:41;5.20;99.90
26954;DHT22;14508;50.924;11.600;2024-03-02T01:31:11;5.20;99.90
26954;DHT22;14508;50.924;11.600;2024-03-02T01:33:39;5.20;99.90
26954;DHT22;14508;50.924;11.600;2024-03-02T01:36:07;5.20;99.90
26954;DHT22;14508;50.924;11.600;2024-03-02T01:38:35;5.20;99.90
26954;DHT22;14508;50.924;11.600;2024-03-02T01:41:03;5.20;99.90
26954;DHT22;14508;50.924;11.600;2024-03-02T01:43:33;5.20;99.90
26954;DHT22;14508;50.924;11.600;2024-03-02T01:46:05;5.20;99.90
26954;DHT22;14508;50.924;11.600;2024-03-02T01:48:35;5.20;99.90
26954;DHT22;14508;50.924;11.600;2024-03-02T01:51:03;5.20;99.90
26954;DHT22;14508;50.924;11.600;2024-03-02T01:53:33;5.20;99.90
26954;DHT22;14508;50.924;11.600;2024-03-02T01:56:01;5.20;99.90
26954;DHT22;14508;50.924;11.600;2024-03-02T01:58:29;5.20;99.90
26954;DHT22;14508;50.924;11.600;2024-03-02T02:00:57;5.20;99.90
26954;DHT22;14508;50.924;11.600;2024-03-02T02:03:26;5.20;99.90
26954;DHT22;14508;50.924;11.600;2024-03-02T02:05:55;5.20;99.90
26954;DHT22;14508;50.924;11.600;2024-03-02T02:08:23;5.20;99.90
26954;DHT22;14508;50.924;11.600;2024-03-02T02:10:51;5.20;99.90
26954;DHT22;14508;50.924;11.600;2024-03-02T02:13:19;5.20;99.90
26954;DHT22;14508;50.924;11.600;2024-03-02T02:15:47;5.30;99.90
26954;DHT22;14508;50.924;11.600;2024-03-02T02:18:15;5.30;99.90
26954;DHT22;14508;50.924;11.600;2024-03-02T02:20:43;5.30;99.90
26954;DHT22;14508;50.924;11.600;2024-03-02T02:23:12;5.30;99.90
26954;DHT22;14508;50.924;11.600;2024-03-02T02:25:40;5.30;99.90
26954;DHT22;14508;50.924;11.600;2024-03-02T02:28:08;5.40;99.90
26954;DHT22;14508;50.924;11.600;2024-03-02T02:30:36;5.40;99.90
26954;DHT22;14508;50.924;11.600;2024-03-02T02:33:05;5.40;99.90
26954;DHT22;14508;50.924;11.600;2024-03-02T02:35:33;5.40;99.90
26954;DHT22;14508;50.924;11.600;2024-03-02T02:38:01;5.40;99.90
26954;DHT22;14508;50.924;11.600;2024-03-02T02:40:31;5.50;99.90
26954;DHT22;14508;50.924;11.600;2024-03-02T02:42:59;5.50;99.90
26954;DHT22;14508;50.924;11.600;2024-03-02T02:45:27;5.50;99.90
26954;DHT22;14508;50.924;11.600;2024-03-02T02:47:55;5.50;99.90
26954;DHT22;14508;50.924;11.600;2024-03-02T02:50:23;5.50;99.90
26954;DHT22;14508;50.924;11.600;2024-03-02T02:52:51;5.60;99.90
26954;DHT22;14508;50.924;11.600;2024-03-02T02:55:19;5.60;99.90
26954;DHT22;14508;50.924;11.600;2024-03-02T02:57:48;5.60;99.90
26954;DHT22;14508;50.924;11.600;2024-03-02T03:00:17;5.50;99.90
26954;DHT22;14508;50.924;11.600;2024-03-02T03:02:48;5.50;99.90
26954;DHT22;14508;50.924;11.600;2024-03-02T03:05:18;5.60;99.90
26954;DHT22;14508;50.924;11.600;2024-03-02T03:07:46;5.60;99.90
26954;DHT22;14508;50.924;11.600;2024-03-02T03:10:17;5.60;99.90
26954;DHT22;14508;50.924;11.600;2024-03-02T03:12:45;5.60;99.90
26954;DHT22;14508;50.924;11.600;2024-03-02T03:15:15;5.70;99.90
26954;DHT22;14508;50.924;11.600;2024-03-02T03:17:44;5.70;99.90
26954;DHT22;14508;50.924;11.600;2024-03-02T03:20:14;5.70;99.90
26954;DHT22;14508;50.924;11.600;2024-03-02T03:22:42;5.70;99.90
26954;DHT22;14508;50.924;11.600;2024-03-02T03:25:10;5.70;99.90
26954;DHT22;14508;50.924;11.600;2024-03-02T03:27:38;5.70;99.90
26954;DHT22;14508;50.924;11.600;2024-03-02T03:30:07;5.70;99.90
26954;DHT22;14508;50.924;11.600;2024-03-02T03:32:36;5.70;99.90
26954;DHT22;14508;50.924;11.600;2024-03-02T03:35:05;5.70;99.90
26954;DHT22;14508;50.924;11.600;2024-03-02T03:37:33;5.80;99.90
26954;DHT22;14508;50.924;11.600;2024-03-02T03:40:02;5.80;99.90
26954;DHT22;14508;50.924;11.600;2024-03-02T03:42:34;5.80;99.90
26954;DHT22;14508;50.924;11.600;2024-03-02T03:45:02;5.70;99.90
26954;DHT22;14508;50.924;11.600;2024-03-02T03:47:31;5.70;99.90
26954;DHT22;14508;50.924;11.600;2024-03-02T03:50:00;5.70;99.90
26954;DHT22;14508;50.924;11.600;2024-03-02T03:52:31;5.70;99.90
26954;DHT22;14508;50.924;11.600;2024-03-02T03:54:59;5.70;99.90
26954;DHT22;14508;50.924;11.600;2024-03-02T03:57:27;5.60;99.90
26954;DHT22;14508;50.924;11.600;2024-03-02T03:59:55;5.70;99.90
26954;DHT22;14508;50.924;11.600;2024-03-02T04:02:23;5.70;99.90
26954;DHT22;14508;50.924;11.600;2024-03-02T04:04:52;5.70;99.90
26954;DHT22;14508;50.924;11.600;2024-03-02T04:07:21;5.70;99.90
26954;DHT22;14508;50.924;11.600;2024-03-02T04:09:49;5.70;99.90
26954;DHT22;14508;50.924;11.600;2024-03-02T04:12:17;5.70;99.90
26954;DHT22;14508;50.924;11.600;2024-03-02T04:14:45;5.70;99.90
26954;DHT22;14508;50.924;11.600;2024-03-02T04:17:13;5.70;99.90
26954;DHT22;14508;50.924;11.600;2024-03-02T04:19:41;5.70;99.90
26954;DHT22;14508;50.924;11.600;2024-03-02T04:22:09;5.70;99.90
26954;DHT22;14508;50.924;11.600;2024-03-02T04:24:48;5.70;99.90
26954;DHT22;14508;50.924;11.600;2024-03-02T04:27:16;5.80;99.90
26954;DHT22;14508;50.924;11.600;2024-03-02T04:29:44;5.80;99.90
26954;DHT22;14508;50.924;11.600;2024-03-02T04:32:12;5.80;99.90
26954;DHT22;14508;50.924;11.600;2024-03-02T04:34:40;5.70;99.90
26954;DHT22;14508;50.924;11.600;2024-03-02T04:37:09;5.70;99.90
26954;DHT22;14508;50.924;11.600;2024-03-02T04:39:38;5.80;99.90
26954;DHT22;14508;50.924;11.600;2024-03-02T04:42:08;5.70;99.90
26954;DHT22;14508;50.924;11.600;2024-03-02T04:44:36;5.70;99.90
26954;DHT22;14508;50.924;11.600;2024-03-02T04:47:05;5.70;99.90
26954;DHT22;14508;50.924;11.600;2024-03-02T04:49:33;5.60;99.90
26954;DHT22;14508;50.924;11.600;2024-03-02T04:52:01;5.60;99.90
26954;DHT22;14508;50.924;11.600;2024-03-02T04:54:29;5.70;99.90
26954;DHT22;14508;50.924;11.600;2024-03-02T04:56:57;5.70;99.90
26954;DHT22;14508;50.924;11.600;2024-03-02T04:59:26;5.60;99.90
26954;DHT22;14508;50.924;11.600;2024-03-02T05:01:54;5.60;99.90
26954;DHT22;14508;50.924;11.600;2024-03-02T05:04:22;5.60;99.90
26954;DHT22;14508;50.924;11.600;2024-03-02T05:06:50;5.60;99.90
26954;DHT22;14508;50.924;11.600;2024-03-02T05:09:20;5.60;99.90
26954;DHT22;14508;50.924;11.600;2024-03-02T05:11:48;5.60;99.90
26954;DHT22;14508;50.924;11.600;2024-03-02T05:14:51;5.70;99.90
26954;DHT22;14508;50.924;11.600;2024-03-02T05:17:19;5.70;99.90
26954;DHT22;14508;50.924;11.600;2024-03-02T05:19:47;5.70;99.90
26954;DHT22;14508;50.924;11.600;2024-03-02T05:22:15;5.70;99.90
26954;DHT22;14508;50.924;11.600;2024-03-02T05:24:43;5.80;99.90
26954;DHT22;14508;50.924;11.600;2024-03-02T05:27:12;5.80;99.90
26954;DHT22;14508;50.924;11.600;2024-03-02T05:29:39;5.80;99.90
26954;DHT22;14508;50.924;11.600;2024-03-02T05:32:09;5.80;99.90
26954;DHT22;14508;50.924;11.600;2024-03-02T05:34:37;5.80;99.90
26954;DHT22;14508;50.924;11.600;2024-03-02T05:37:05;5.70;99.90
26954;DHT22;14508;50.924;11.600;2024-03-02T05:39:33;5.70;99.90
26954;DHT22;14508;50.924;11.600;2024-03-02T05:42:01;5.70;99.90
26954;DHT22;14508;50.924;11.600;2024-03-02T05:44:29;5.80;99.90
26954;DHT22;14508;50.924;11.600;2024-03-02T05:46:57;5.80;99.90
26954;DHT22;14508;50.924;11.600;2024-03-02T05:49:27;5.90;99.90
26954;DHT22;14508;50.924;11.600;2024-03-02T05:51:55;5.90;99.90
26954;DHT22;14508;50.924;11.600;2024-03-02T05:54:23;5.90;99.90
26954;DHT22;14508;50.924;11.600;2024-03-02T05:56:51;5.90;99.90
26954;DHT22;14508;50.924;11.600;2024-03-02T05:59:19;5.90;99.90
26954;DHT22;14508;50.924;11.600;2024-03-02T06:01:47;5.90;99.90
26954;DHT22;14508;50.924;11.600;2024-03-02T06:04:17;5.90;99.90
26954;DHT22;14508;50.924;11.600;2024-03-02T06:06:46;5.90;99.90
26954;DHT22;14508;50.924;11.600;2024-03-02T06:09:16;5.80;99.90
26954;DHT22;14508;50.924;11.600;2024-03-02T06:11:46;5.80;99.90
26954;DHT22;14508;50.924;11.600;2024-03-02T06:14:14;5.80;99.90
26954;DHT22;14508;50.924;11.600;2024-03-02T06:16:43;5.80;99.90
26954;DHT22;14508;50.924;11.600;2024-03-02T06:19:11;5.90;99.90
26954;DHT22;14508;50.924;11.600;2024-03-02T06:21:39;5.90;99.90
26954;DHT22;14508;50.924;11.600;2024-03-02T06:24:08;6.00;99.90
26954;DHT22;14508;50.924;11.600;2024-03-02T06:26:36;6.00;99.90
26954;DHT22;14508;50.924;11.600;2024-03-02T06:29:04;6.10;99.90
26954;DHT22;14508;50.924;11.600;2024-03-02T06:31:32;6.20;99.90
26954;DHT22;14508;50.924;11.600;2024-03-02T06:34:00;6.20;99.90
26954;DHT22;14508;50.924;11.600;2024-03-02T06:36:30;6.20;99.90
26954;DHT22;14508;50.924;11.600;2024-03-02T06:38:57;6.20;99.90
26954;DHT22;14508;50.924;11.600;2024-03-02T06:41:26;6.20;99.90
26954;DHT22;14508;50.924;11.600;2024-03-02T06:43:54;6.20;99.90
26954;DHT22;14508;50.924;11.600;2024-03-02T06:46:27;6.20;99.90
26954;DHT22;14508;50.924;11.600;2024-03-02T06:48:54;6.20;99.90
26954;DHT22;14508;50.924;11.600;2024-03-02T06:51:22;6.20;99.90
26954;DHT22;14508;50.924;11.600;2024-03-02T06:53:50;6.20;99.90
26954;DHT22;14508;50.924;11.600;2024-03-02T06:56:18;6.30;99.90
26954;DHT22;14508;50.924;11.600;2024-03-02T06:58:48;6.40;99.90
26954;DHT22;14508;50.924;11.600;2024-03-02T07:01:16;6.50;99.90
26954;DHT22;14508;50.924;11.600;2024-03-02T07:03:44;6.60;99.90
26954;DHT22;14508;50.924;11.600;2024-03-02T07:06:12;6.70;99.90
26954;DHT22;14508;50.924;11.600;2024-03-02T07:08:40;6.70;99.90
26954;DHT22;14508;50.924;11.600;2024-03-02T07:11:08;6.80;99.90
26954;DHT22;14508;50.924;11.600;2024-03-02T07:13:36;6.90;99.90
26954;DHT22;14508;50.924;11.600;2024-03-02T07:16:06;6.90;99.90
26954;DHT22;14508;50.924;11.600;2024-03-02T07:18:54;7.00;99.90
26954;DHT22;14508;50.924;11.600;2024-03-02T07:21:23;7.00;99.90
26954;DHT22;14508;50.924;11.600;2024-03-02T07:23:51;7.00;99.90
26954;DHT22;14508;50.924;11.600;2024-03-02T07:26:19;7.10;99.90
26954;DHT22;14508;50.924;11.600;2024-03-02T07:28:51;7.20;99.90
26954;DHT22;14508;50.924;11.600;2024-03-02T07:31:20;7.20;99.90
26954;DHT22;14508;50.924;11.600;2024-03-02T07:33:48;7.30;99.90
26954;DHT22;14508;50.924;11.600;2024-03-02T07:36:16;7.40;99.90
26954;DHT22;14508;50.924;11.600;2024-03-02T07:38:45;7.40;99.90
26954;DHT22;14508;50.924;11.600;2024-03-02T07:41:16;7.40;99.90
26954;DHT22;14508;50.924;11.600;2024-03-02T07:43:44;7.40;99.90
26954;DHT22;14508;50.924;11.600;2024-03-02T07:46:12;7.40;99.90
26954;DHT22;14508;50.924;11.600;2024-03-02T07:48:43;7.30;99.90
26954;DHT22;14508;50.924;11.600;2024-03-02T07:51:11;7.30;99.90
26954;DHT22;14508;50.924;11.600;2024-03-02T07:53:40;7.30;99.90
26954;DHT22;14508;50.924;11.600;2024-03-02T07:56:09;7.30;99.90
26954;DHT22;14508;50.924;11.600;2024-03-02T07:58:37;7.30;99.90
26954;DHT22;14508;50.924;11.600;2024-03-02T08:01:05;7.30;99.90
26954;DHT22;14508;50.924;11.600;2024-03-02T08:03:33;7.30;99.90
26954;DHT22;14508;50.924;11.600;2024-03-02T08:06:03;7.30;99.90
26954;DHT22;14508;50.924;11.600;2024-03-02T08:08:31;7.30;99.90
26954;DHT22;14508;50.924;11.600;2024-03-02T08:10:59;7.30;99.90
26954;DHT22;14508;50.924;11.600;2024-03-02T08:13:27;7.30;99.90
26954;DHT22;14508;50.924;11.600;2024-03-02T08:15:55;7.40;99.90
26954;DHT22;14508;50.924;11.600;2024-03-02T08:18:24;7.50;99.90
26954;DHT22;14508;50.924;11.600;2024-03-02T08:20:52;7.60;99.90
26954;DHT22;14508;50.924;11.600;2024-03-02T08:23:21;7.80;99.90
26954;DHT22;14508;50.924;11.600;2024-03-02T08:25:49;8.00;99.90
26954;DHT22;14508;50.924;11.600;2024-03-02T08:28:17;8.20;99.90
26954;DHT22;14508;50.924;11.600;2024-03-02T08:30:46;8.40;99.90
26954;DHT22;14508;50.924;11.600;2024-03-02T08:33:14;8.50;99.90
26954;DHT22;14508;50.924;11.600;2024-03-02T08:35:43;8.60;99.90
26954;DHT22;14508;50.924;11.600;2024-03-02T08:38:11;8.70;99.90
26954;DHT22;14508;50.924;11.600;2024-03-02T08:40:40;8.80;99.90
26954;DHT22;14508;50.924;11.600;2024-03-02T08:43:08;8.90;99.90
26954;DHT22;14508;50.924;11.600;2024-03-02T08:45:36;9.00;99.90
26954;DHT22;14508;50.924;11.600;2024-03-02T08:48:07;9.00;99.90
26954;DHT22;14508;50.924;11.600;2024-03-02T08:50:36;9.10;99.90
26954;DHT22;14508;50.924;11.600;2024-03-02T08:53:06;9.10;99.90
26954;DHT22;14508;50.924;11.600;2024-03-02T08:55:34;9.20;99.90
26954;DHT22;14508;50.924;11.600;2024-03-02T08:58:03;9.20;99.90
26954;DHT22;14508;50.924;11.600;2024-03-02T09:00:31;9.20;99.90
26954;DHT22;14508;50.924;11.600;2024-03-02T09:03:00;9.30;99.90
26954;DHT22;14508;50.924;11.600;2024-03-02T09:05:28;9.30;99.90
26954;DHT22;14508;50.924;11.600;2024-03-02T09:07:56;9.40;99.90
26954;DHT22;14508;50.924;11.600;2024-03-02T09:10:24;9.50;99.90
26954;DHT22;14508;50.924;11.600;2024-03-02T09:12:54;9.70;99.90
26954;DHT22;14508;50.924;11.600;2024-03-02T09:15:24;9.80;99.90
26954;DHT22;14508;50.924;11.600;2024-03-02T09:17:52;9.90;99.90
26954;DHT22;14508;50.924;11.600;2024-03-02T09:20:20;10.00;99.90
26954;DHT22;14508;50.924;11.600;2024-03-02T09:22:49;10.10;99.90
26954;DHT22;14508;50.924;11.600;2024-03-02T09:25:17;10.20;99.90
26954;DHT22;14508;50.924;11.600;2024-03-02T09:27:45;10.40;99.90
26954;DHT22;14508;50.924;11.600;2024-03-02T09:30:14;10.40;99.90
26954;DHT22;14508;50.924;11.600;2024-03-02T09:32:43;10.60;99.90
26954;DHT22;14508;50.924;11.600;2024-03-02T09:35:12;10.70;99.90
26954;DHT22;14508;50.924;11.600;2024-03-02T09:37:40;10.90;99.90
26954;DHT22;14508;50.924;11.600;2024-03-02T09:40:10;11.10;99.90
26954;DHT22;14508;50.924;11.600;2024-03-02T09:42:38;11.20;99.90
26954;DHT22;14508;50.924;11.600;2024-03-02T09:45:08;11.40;99.90
26954;DHT22;14508;50.924;11.600;2024-03-02T09:47:37;11.50;99.90
26954;DHT22;14508;50.924;11.600;2024-03-02T09:50:07;11.60;99.90
26954;DHT22;14508;50.924;11.600;2024-03-02T09:52:36;11.80;99.90
26954;DHT22;14508;50.924;11.600;2024-03-02T09:55:05;11.90;99.90
26954;DHT22;14508;50.924;11.600;2024-03-02T09:57:33;11.90;99.90
26954;DHT22;14508;50.924;11.600;2024-03-02T10:00:03;11.90;99.90
26954;DHT22;14508;50.924;11.600;2024-03-02T10:02:31;12.00;99.90
26954;DHT22;14508;50.924;11.600;2024-03-02T10:04:59;12.00;99.90
26954;DHT22;14508;50.924;11.600;2024-03-02T10:07:32;11.80;99.90
26954;DHT22;14508;50.924;11.600;2024-03-02T10:10:12;11.70;99.90
26954;DHT22;14508;50.924;11.600;2024-03-02T10:12:40;11.60;99.90
26954;DHT22;14508;50.924;11.600;2024-03-02T10:15:09;11.60;99.90
26954;DHT22;14508;50.924;11.600;2024-03-02T10:17:37;11.50;99.90
26954;DHT22;14508;50.924;11.600;2024-03-02T10:20:23;11.40;99.90
26954;DHT22;14508;50.924;11.600;2024-03-02T10:22:52;11.40;99.90
26954;DHT22;14508;50.924;11.600;2024-03-02T10:25:30;11.40;99.90
26954;DHT22;14508;50.924;11.600;2024-03-02T10:28:16;11.40;99.90
26954;DHT22;14508;50.924;11.600;2024-03-02T10:30:47;11.40;99.90
26954;DHT22;14508;50.924;11.600;2024-03-02T10:33:17;11.50;99.90
26954;DHT22;14508;50.924;11.600;2024-03-02T10:35:45;11.60;99.90
26954;DHT22;14508;50.924;11.600;2024-03-02T10:38:17;11.70;99.90
26954;DHT22;14508;50.924;11.600;2024-03-02T10:40:47;11.80;99.90
26954;DHT22;14508;50.924;11.600;2024-03-02T10:43:15;11.80;99.90
26954;DHT22;14508;50.924;11.600;2024-03-02T10:45:44;11.90;99.90
26954;DHT22;14508;50.924;11.600;2024-03-02T10:48:13;11.90;99.90
26954;DHT22;14508;50.924;11.600;2024-03-02T10:50:41;11.90;99.90
26954;DHT22;14508;50.924;11.600;2024-03-02T10:53:09;12.00;99.90
26954;DHT22;14508;50.924;11.600;2024-03-02T10:55:38;12.00;99.90
26954;DHT22;14508;50.924;11.600;2024-03-02T10:58:12;12.20;99.90
26954;DHT22;14508;50.924;11.600;2024-03-02T11:00:43;12.30;99.90
26954;DHT22;14508;50.924;11.600;2024-03-02T11:03:13;12.40;99.90
26954;DHT22;14508;50.924;11.600;2024-03-02T11:05:44;12.60;99.90
26954;DHT22;14508;50.924;11.600;2024-03-02T11:08:13;12.80;99.90
26954;DHT22;14508;50.924;11.600;2024-03-02T11:10:54;13.00;99.90
26954;DHT22;14508;50.924;11.600;2024-03-02T11:13:31;13.20;99.90
26954;DHT22;14508;50.924;11.600;2024-03-02T11:16:06;13.10;99.90
26954;DHT22;14508;50.924;11.600;2024-03-02T11:18:37;13.20;99.90
26954;DHT22;14508;50.924;11.600;2024-03-02T11:21:06;13.20;99.90
26954;DHT22;14508;50.924;11.600;2024-03-02T11:23:35;13.30;99.90
26954;DHT22;14508;50.924;11.600;2024-03-02T11:26:20;13.40;99.90
26954;DHT22;14508;50.924;11.600;2024-03-02T11:28:50;13.50;99.90
26954;DHT22;14508;50.924;11.600;2024-03-02T11:31:18;13.50;99.90
26954;DHT22;14508;50.924;11.600;2024-03-02T11:33:46;13.50;99.90
26954;DHT22;14508;50.924;11.600;2024-03-02T11:36:15;13.40;99.90
26954;DHT22;14508;50.924;11.600;2024-03-02T11:38:44;13.30;99.90
26954;DHT22;14508;50.924;11.600;2024-03-02T11:41:14;13.20;99.90
26954;DHT22;14508;50.924;11.600;2024-03-02T11:43:44;13.10;99.90
26954;DHT22;14508;50.924;11.600;2024-03-02T11:46:12;13.10;99.90
26954;DHT22;14508;50.924;11.600;2024-03-02T11:48:40;13.10;99.90
26954;DHT22;14508;50.924;11.600;2024-03-02T11:51:08;13.20;99.90
26954;DHT22;14508;50.924;11.600;2024-03-02T11:53:39;13.20;99.90
26954;DHT22;14508;50.924;11.600;2024-03-02T11:56:09;13.20;99.90
26954;DHT22;14508;50.924;11.600;2024-03-02T11:58:39;13.30;99.90
26954;DHT22;14508;50.924;11.600;2024-03-02T12:01:10;13.40;99.90
26954;DHT22;14508;50.924;11.600;2024-03-02T12:03:40;13.50;99.90
26954;DHT22;14508;50.924;11.600;2024-03-02T12:06:08;13.50;99.90
26954;DHT22;14508;50.924;11.600;2024-03-02T12:08:36;13.50;99.90
26954;DHT22;14508;50.924;11.600;2024-03-02T12:11:04;13.50;99.90
26954;DHT22;14508;50.924;11.600;2024-03-02T12:13:33;13.40;99.90
26954;DHT22;14508;50.924;11.600;2024-03-02T12:16:02;13.30;99.90
26954;DHT22;14508;50.924;11.600;2024-03-02T12:18:31;13.40;99.90
26954;DHT22;14508;50.924;11.600;2024-03-02T12:20:59;13.40;99.90
26954;DHT22;14508;50.924;11.600;2024-03-02T12:23:29;13.50;99.90
26954;DHT22;14508;50.924;11.600;2024-03-02T12:25:57;13.60;99.90
26954;DHT22;14508;50.924;11.600;2024-03-02T12:28:25;13.60;99.90
26954;DHT22;14508;50.924;11.600;2024-03-02T12:30:54;13.70;99.90
26954;DHT22;14508;50.924;11.600;2024-03-02T12:33:22;13.80;99.90
26954;DHT22;14508;50.924;11.600;2024-03-02T12:35:52;13.90;99.90
26954;DHT22;14508;50.924;11.600;2024-03-02T12:38:20;14.00;99.90
26954;DHT22;14508;50.924;11.600;2024-03-02T12:40:52;14.00;99.90
26954;DHT22;14508;50.924;11.600;2024-03-02T12:43:20;14.20;99.90
26954;DHT22;14508;50.924;11.600;2024-03-02T12:45:50;14.20;99.60
26954;DHT22;14508;50.924;11.600;2024-03-02T12:48:18;14.30;99.60
26954;DHT22;14508;50.924;11.600;2024-03-02T12:50:51;14.40;97.90
26954;DHT22;14508;50.924;11.600;2024-03-02T12:53:21;14.50;97.00
26954;DHT22;14508;50.924;11.600;2024-03-02T12:55:49;14.60;96.50
26954;DHT22;14508;50.924;11.600;2024-03-02T12:58:18;14.70;95.90
26954;DHT22;14508;50.924;11.600;2024-03-02T13:00:48;14.80;95.20
26954;DHT22;14508;50.924;11.600;2024-03-02T13:03:18;14.80;94.30
26954;DHT22;14508;50.924;11.600;2024-03-02T13:05:52;14.70;93.00
26954;DHT22;14508;50.924;11.600;2024-03-02T13:08:20;14.70;93.20
26954;DHT22;14508;50.924;11.600;2024-03-02T13:10:48;14.50;92.60
26954;DHT22;14508;50.924;11.600;2024-03-02T13:13:16;14.50;92.80
26954;DHT22;14508;50.924;11.600;2024-03-02T13:15:44;14.50;93.20
26954;DHT22;14508;50.924;11.600;2024-03-02T13:18:12;14.50;92.80
26954;DHT22;14508;50.924;11.600;2024-03-02T13:20:42;14.50;92.40
26954;DHT22;14508;50.924;11.600;2024-03-02T13:23:11;14.50;92.40
26954;DHT22;14508;50.924;11.600;2024-03-02T13:25:39;14.60;92.40
26954;DHT22;14508;50.924;11.600;2024-03-02T13:28:08;14.70;92.00
26954;DHT22;14508;50.924;11.600;2024-03-02T13:30:36;14.70;90.60
26954;DHT22;14508;50.924;11.600;2024-03-02T13:33:04;14.60;89.30
26954;DHT22;14508;50.924;11.600;2024-03-02T13:35:32;14.70;88.60
26954;DHT22;14508;50.924;11.600;2024-03-02T13:38:00;14.60;87.40
26954;DHT22;14508;50.924;11.600;2024-03-02T13:40:29;14.60;87.40
26954;DHT22;14508;50.924;11.600;2024-03-02T13:43:02;14.60;87.20
26954;DHT22;14508;50.924;11.600;2024-03-02T13:45:30;14.70;87.00
26954;DHT22;14508;50.924;11.600;2024-03-02T13:47:59;14.60;86.60
26954;DHT22;14508;50.924;11.600;2024-03-02T13:50:28;14.70;86.00
26954;DHT22;14508;50.924;11.600;2024-03-02T13:52:56;14.70;85.60
26954;DHT22;14508;50.924;11.600;2024-03-02T13:55:24;14.70;83.40
26954;DHT22;14508;50.924;11.600;2024-03-02T13:57:53;14.80;83.50
26954;DHT22;14508;50.924;11.600;2024-03-02T14:00:22;14.80;82.90
26954;DHT22;14508;50.924;11.600;2024-03-02T14:02:50;14.80;81.80
26954;DHT22;14508;50.924;11.600;2024-03-02T14:05:18;14.80;82.00
26954;DHT22;14508;50.924;11.600;2024-03-02T14:07:46;14.80;82.10
26954;DHT22;14508;50.924;11.600;2024-03-02T14:10:14;14.90;82.20
26954;DHT22;14508;50.924;11.600;2024-03-02T14:12:42;15.00;81.20
26954;DHT22;14508;50.924;11.600;2024-03-02T14:15:12;15.00;80.90
26954;DHT22;14508;50.924;11.600;2024-03-02T14:17:39;15.00;79.90
26954;DHT22;14508;50.924;11.600;2024-03-02T14:20:08;15.00;79.50
26954;DHT22;14508;50.924;11.600;2024-03-02T14:22:38;15.10;79.10
26954;DHT22;14508;50.924;11.600;2024-03-02T14:25:06;15.20;77.80
26954;DHT22;14508;50.924;11.600;2024-03-02T14:27:35;15.30;76.20
26954;DHT22;14508;50.924;11.600;2024-03-02T14:30:24;15.40;75.40
26954;DHT22;14508;50.924;11.600;2024-03-02T14:32:52;15.40;73.90
26954;DHT22;14508;50.924;11.600;2024-03-02T14:35:20;15.40;74.10
26954;DHT22;14508;50.924;11.600;2024-03-02T14:37:49;15.50;74.10
26954;DHT22;14508;50.924;11.600;2024-03-02T14:40:19;15.50;74.30
26954;DHT22;14508;50.924;11.600;2024-03-02T14:42:48;15.50;73.70
26954;DHT22;14508;50.924;11.600;2024-03-02T14:45:17;15.50;73.60
26954;DHT22;14508;50.924;11.600;2024-03-02T14:47:46;15.50;73.50
26954;DHT22;14508;50.924;11.600;2024-03-02T14:50:15;15.40;73.40
26954;DHT22;14508;50.924;11.600;2024-03-02T14:52:44;15.40;73.70
26954;DHT22;14508;50.924;11.600;2024-03-02T14:55:12;15.30;73.60
26954;DHT22;14508;50.924;11.600;2024-03-02T14:57:40;15.30;73.80
26954;DHT22;14508;50.924;11.600;2024-03-02T15:00:09;15.20;73.80
26954;DHT22;14508;50.924;11.600;2024-03-02T15:02:38;15.20;74.00
26954;DHT22;14508;50.924;11.600;2024-03-02T15:05:08;15.10;74.00
26954;DHT22;14508;50.924;11.600;2024-03-02T15:07:36;15.10;73.90
26954;DHT22;14508;50.924;11.600;2024-03-02T15:10:06;15.00;73.70
26954;DHT22;14508;50.924;11.600;2024-03-02T15:12:35;15.00;73.80
26954;DHT22;14508;50.924;11.600;2024-03-02T15:15:04;15.00;74.10
26954;DHT22;14508;50.924;11.600;2024-03-02T15:17:32;15.00;74.80
26954;DHT22;14508;50.924;11.600;2024-03-02T15:20:00;15.10;75.50
26954;DHT22;14508;50.924;11.600;2024-03-02T15:22:32;15.00;75.70
26954;DHT22;14508;50.924;11.600;2024-03-02T15:25:01;15.00;75.90
26954;DHT22;14508;50.924;11.600;2024-03-02T15:27:29;14.90;76.40
26954;DHT22;14508;50.924;11.600;2024-03-02T15:29:58;14.80;76.90
26954;DHT22;14508;50.924;11.600;2024-03-02T15:32:26;14.70;77.60
26954;DHT22;14508;50.924;11.600;2024-03-02T15:34:54;14.60;78.10
26954;DHT22;14508;50.924;11.600;2024-03-02T15:37:23;14.50;78.70